createdAt,value
2023-04-26T00:00:33.668Z,37.44
2023-04-26T00:01:33.707Z,37.59
2023-04-26T00:02:33.794Z,37.63
2023-04-26T00:03:34.082Z,37.53
2023-04-26T00:04:33.987Z,37.51
2023-04-26T00:05:33.891Z,37.52
2023-04-26T00:06:33.885Z,37.61
2023-04-26T00:07:33.938Z,37.60
2023-04-26T00:08:33.957Z,37.57
2023-04-26T00:09:34.005Z,37.48
2023-04-26T00:10:34.048Z,37.72
2023-04-26T00:11:34.082Z,37.48
2023-04-26T00:12:34.145Z,37.46
2023-04-26T00:13:34.183Z,37.63
2023-04-26T00:14:34.236Z,37.54
2023-04-26T00:15:34.247Z,37.54
2023-04-26T00:16:34.342Z,37.49
2023-04-26T00:17:34.405Z,37.48
2023-04-26T00:18:34.413Z,37.51
2023-04-26T00:19:34.463Z,37.59
2023-04-26T00:20:34.493Z,37.51
2023-04-26T00:21:34.535Z,37.48
2023-04-26T00:22:34.566Z,37.50
2023-04-26T00:23:34.613Z,37.54
2023-04-26T00:24:34.642Z,37.52
2023-04-26T00:25:34.706Z,37.53
2023-04-26T00:26:34.745Z,37.45
2023-04-26T00:27:34.774Z,37.58
2023-04-26T00:28:34.850Z,37.56
2023-04-26T00:29:34.873Z,37.60
2023-04-26T00:30:34.910Z,37.54
2023-04-26T00:31:35.047Z,37.48
2023-04-26T00:32:34.999Z,37.54
2023-04-26T00:33:35.031Z,37.53
2023-04-26T00:34:35.061Z,37.50
2023-04-26T00:35:35.100Z,37.54
2023-04-26T00:36:35.152Z,37.56
2023-04-26T00:37:35.185Z,37.45
2023-04-26T00:38:35.225Z,37.50
2023-04-26T00:39:35.284Z,37.53
2023-04-26T00:40:35.323Z,37.54
2023-04-26T00:41:35.337Z,37.60
2023-04-26T00:42:35.385Z,37.52
2023-04-26T00:43:35.433Z,37.50
2023-04-26T00:44:35.469Z,37.52
2023-04-26T00:45:35.568Z,37.58
2023-04-26T00:46:35.563Z,37.53
2023-04-26T00:47:35.657Z,37.49
2023-04-26T00:48:35.664Z,37.53
2023-04-26T00:49:35.698Z,37.48
2023-04-26T00:50:35.732Z,37.56
2023-04-26T00:51:35.768Z,37.61
2023-04-26T00:52:35.813Z,37.57
2023-04-26T00:53:35.871Z,37.66
2023-04-26T00:54:35.910Z,37.63
2023-04-26T00:55:35.967Z,37.63
2023-04-26T00:56:36.007Z,37.58
2023-04-26T00:57:36.052Z,37.57
2023-04-26T00:58:36.092Z,37.67
2023-04-26T00:59:36.127Z,37.58
2023-04-26T01:00:36.176Z,37.60
2023-04-26T01:01:36.307Z,37.66
2023-04-26T01:02:36.326Z,37.70
2023-04-26T01:03:36.443Z,37.59
2023-04-26T01:04:36.447Z,37.60
2023-04-26T01:05:36.402Z,37.58
2023-04-26T01:06:36.412Z,37.56
2023-04-26T01:07:36.502Z,37.63
2023-04-26T01:08:36.511Z,37.59
2023-04-26T01:09:36.588Z,37.57
2023-04-26T01:10:36.579Z,37.65
2023-04-26T01:11:36.617Z,37.63
2023-04-26T01:12:36.671Z,37.60
2023-04-26T01:13:36.757Z,37.60
2023-04-26T01:14:36.782Z,37.58
2023-04-26T01:15:36.812Z,37.69
2023-04-26T01:16:36.896Z,37.64
2023-04-26T01:17:36.909Z,37.61
2023-04-26T01:18:37.009Z,37.66
2023-04-26T01:19:36.986Z,37.67
2023-04-26T01:20:37.022Z,37.62
2023-04-26T01:21:37.073Z,37.64
2023-04-26T01:22:37.124Z,37.74
2023-04-26T01:23:37.206Z,37.66
2023-04-26T01:24:37.198Z,37.69
2023-04-26T01:25:37.249Z,37.63
2023-04-26T01:26:37.324Z,37.71
2023-04-26T01:27:37.319Z,37.61
2023-04-26T01:28:37.388Z,37.67
2023-04-26T01:29:37.394Z,37.62
2023-04-26T01:30:37.463Z,37.65
2023-04-26T01:31:37.533Z,37.71
2023-04-26T01:32:37.563Z,37.63
2023-04-26T01:33:38.021Z,37.58
2023-04-26T01:34:37.618Z,37.62
2023-04-26T01:35:37.675Z,37.74
2023-04-26T01:36:37.704Z,37.68
2023-04-26T01:37:37.773Z,37.74
2023-04-26T01:38:37.799Z,37.76
2023-04-26T01:39:37.854Z,37.75
2023-04-26T01:40:37.863Z,37.68
2023-04-26T01:41:37.904Z,37.69
2023-04-26T01:42:37.954Z,37.69
2023-04-26T01:43:38.006Z,37.79
2023-04-26T01:44:38.041Z,37.67
2023-04-26T01:45:38.099Z,37.73
2023-04-26T01:46:38.203Z,37.67
2023-04-26T01:47:38.192Z,37.74
2023-04-26T01:48:38.277Z,37.76
2023-04-26T01:49:38.280Z,37.72
2023-04-26T01:50:38.307Z,37.65
2023-04-26T01:51:38.452Z,37.68
2023-04-26T01:52:38.354Z,37.75
2023-04-26T01:53:38.417Z,37.66
2023-04-26T01:54:38.471Z,37.70
2023-04-26T01:55:38.556Z,37.71
2023-04-26T01:56:38.569Z,37.75
2023-04-26T01:57:38.621Z,37.71
2023-04-26T01:58:38.605Z,37.63
2023-04-26T01:59:38.664Z,37.72
2023-04-26T02:00:38.679Z,37.77
2023-04-26T02:01:38.820Z,37.63
2023-04-26T02:02:38.858Z,37.68
2023-04-26T02:03:38.881Z,37.71
2023-04-26T02:04:38.905Z,37.71
2023-04-26T02:05:38.892Z,37.77
2023-04-26T02:06:38.945Z,37.73
2023-04-26T02:07:38.988Z,37.61
2023-04-26T02:08:39.033Z,37.71
2023-04-26T02:09:39.076Z,37.71
2023-04-26T02:10:39.127Z,37.71
2023-04-26T02:11:39.160Z,37.62
2023-04-26T02:12:39.211Z,37.74
2023-04-26T02:13:39.265Z,37.75
2023-04-26T02:14:39.332Z,37.63
2023-04-26T02:15:39.350Z,37.71
2023-04-26T02:16:39.438Z,37.74
2023-04-26T02:17:39.466Z,37.72
2023-04-26T02:18:39.461Z,37.72
2023-04-26T02:19:39.523Z,37.82
2023-04-26T02:20:39.533Z,37.73
2023-04-26T02:21:39.616Z,37.63
2023-04-26T02:22:39.637Z,37.59
2023-04-26T02:23:39.681Z,37.70
2023-04-26T02:24:39.726Z,37.70
2023-04-26T02:25:39.767Z,37.75
2023-04-26T02:26:39.814Z,37.69
2023-04-26T02:27:39.869Z,37.68
2023-04-26T02:28:39.911Z,37.77
2023-04-26T02:29:43.614Z,37.78
2023-04-26T02:30:39.998Z,37.71
2023-04-26T02:31:39.998Z,37.66
2023-04-26T02:32:39.979Z,37.61
2023-04-26T02:33:39.962Z,37.73
2023-04-26T02:34:39.939Z,37.79
2023-04-26T02:35:39.938Z,37.71
2023-04-26T02:36:39.998Z,37.68
2023-04-26T02:37:39.924Z,37.68
2023-04-26T02:38:39.903Z,37.71
2023-04-26T02:39:39.890Z,37.73
2023-04-26T02:40:39.905Z,37.75
2023-04-26T02:41:39.893Z,37.80
2023-04-26T02:42:39.901Z,37.73
2023-04-26T02:43:39.863Z,37.68
2023-04-26T02:44:40.148Z,37.62
2023-04-26T02:45:39.856Z,37.74
2023-04-26T02:46:39.873Z,37.69
2023-04-26T02:47:39.957Z,37.70
2023-04-26T02:48:39.917Z,37.71
2023-04-26T02:49:39.954Z,37.69
2023-04-26T02:50:40.005Z,37.65
2023-04-26T02:51:40.061Z,37.70
2023-04-26T02:52:40.081Z,37.69
2023-04-26T02:53:40.134Z,37.73
2023-04-26T02:54:40.171Z,37.68
2023-04-26T02:55:40.231Z,37.75
2023-04-26T02:56:40.313Z,37.64
2023-04-26T02:57:40.329Z,37.72
2023-04-26T02:58:40.393Z,37.79
2023-04-26T02:59:40.421Z,37.82
2023-04-26T03:00:40.458Z,37.70
2023-04-26T03:01:40.535Z,37.73
2023-04-26T03:02:40.673Z,37.75
2023-04-26T03:03:40.739Z,37.76
2023-04-26T03:04:40.669Z,37.77
2023-04-26T03:05:40.697Z,37.72
2023-04-26T03:06:40.725Z,37.74
2023-04-26T03:07:40.776Z,37.72
2023-04-26T03:08:40.826Z,37.71
2023-04-26T03:09:40.882Z,37.78
2023-04-26T03:10:40.932Z,37.86
2023-04-26T03:11:40.978Z,37.71
2023-04-26T03:12:41.023Z,37.67
2023-04-26T03:13:41.073Z,37.74
2023-04-26T03:14:41.130Z,37.76
2023-04-26T03:15:41.171Z,37.80
2023-04-26T03:16:41.324Z,37.83
2023-04-26T03:17:41.387Z,37.78
2023-04-26T03:18:41.353Z,37.74
2023-04-26T03:19:41.390Z,37.66
2023-04-26T03:20:41.424Z,37.72
2023-04-26T03:21:41.490Z,37.73
2023-04-26T03:22:41.536Z,37.81
2023-04-26T03:23:41.602Z,37.68
2023-04-26T03:24:41.638Z,37.63
2023-04-26T03:25:41.721Z,37.66
2023-04-26T03:26:41.750Z,37.77
2023-04-26T03:27:41.804Z,37.76
2023-04-26T03:28:41.894Z,37.72
2023-04-26T03:29:43.904Z,37.79
2023-04-26T03:30:41.959Z,37.75
2023-04-26T03:31:42.052Z,37.81
2023-04-26T03:32:42.133Z,37.77
2023-04-26T03:33:42.124Z,37.78
2023-04-26T03:34:42.194Z,37.79
2023-04-26T03:35:42.271Z,37.71
2023-04-26T03:36:42.302Z,37.66
2023-04-26T03:37:42.346Z,37.79
2023-04-26T03:38:42.399Z,37.81
2023-04-26T03:39:42.452Z,37.80
2023-04-26T03:40:42.527Z,37.73
2023-04-26T03:41:42.583Z,37.76
2023-04-26T03:42:42.585Z,37.82
2023-04-26T03:43:42.663Z,37.83
2023-04-26T03:44:42.735Z,37.73
2023-04-26T03:45:42.798Z,37.85
2023-04-26T03:46:42.822Z,37.75
2023-04-26T03:47:42.930Z,37.79
2023-04-26T03:48:42.940Z,37.81
2023-04-26T03:49:42.980Z,37.78
2023-04-26T03:50:43.047Z,37.80
2023-04-26T03:51:43.117Z,37.80
2023-04-26T03:52:43.147Z,37.77
2023-04-26T03:53:43.233Z,37.78
2023-04-26T03:54:43.258Z,37.77
2023-04-26T03:55:43.296Z,37.76
2023-04-26T03:56:43.362Z,37.72
2023-04-26T03:57:43.388Z,37.82
2023-04-26T03:58:43.508Z,37.73
2023-04-26T03:59:43.518Z,37.80
2023-04-26T04:00:43.611Z,37.79
2023-04-26T04:01:43.607Z,37.73
2023-04-26T04:02:43.768Z,37.78
2023-04-26T04:03:43.845Z,37.87
2023-04-26T04:04:44.042Z,37.90
2023-04-26T04:05:43.893Z,37.80
2023-04-26T04:06:43.877Z,37.78
2023-04-26T04:07:43.941Z,37.81
2023-04-26T04:08:43.972Z,37.79
2023-04-26T04:09:44.029Z,37.77
2023-04-26T04:10:44.091Z,37.79
2023-04-26T04:11:45.674Z,37.85
2023-04-26T04:12:44.206Z,37.83
2023-04-26T04:13:44.258Z,37.84
2023-04-26T04:14:44.303Z,37.81
2023-04-26T04:15:44.380Z,37.88
2023-04-26T04:16:44.474Z,37.82
2023-04-26T04:17:44.476Z,37.81
2023-04-26T04:18:44.511Z,37.83
2023-04-26T04:19:44.584Z,37.93
2023-04-26T04:20:44.646Z,37.83
2023-04-26T04:21:44.660Z,37.86
2023-04-26T04:22:44.761Z,37.89
2023-04-26T04:23:44.771Z,37.79
2023-04-26T04:24:44.836Z,37.76
2023-04-26T04:25:44.885Z,37.72
2023-04-26T04:26:44.937Z,37.83
2023-04-26T04:27:45.010Z,37.74
2023-04-26T04:28:45.057Z,37.70
2023-04-26T04:29:45.124Z,37.78
2023-04-26T04:30:45.164Z,37.90
2023-04-26T04:31:45.280Z,37.92
2023-04-26T04:32:45.372Z,37.77
2023-04-26T04:33:45.359Z,37.83
2023-04-26T04:34:45.812Z,37.92
2023-04-26T04:35:45.468Z,37.82
2023-04-26T04:36:45.500Z,37.87
2023-04-26T04:37:45.546Z,37.96
2023-04-26T04:38:45.600Z,37.89
2023-04-26T04:39:45.664Z,37.80
2023-04-26T04:40:45.729Z,37.84
2023-04-26T04:41:45.767Z,37.84
2023-04-26T04:42:45.831Z,37.75
2023-04-26T04:43:45.965Z,37.69
2023-04-26T04:44:45.972Z,37.77
2023-04-26T04:45:46.022Z,37.71
2023-04-26T04:46:46.081Z,37.66
2023-04-26T04:47:46.147Z,37.68
2023-04-26T04:48:46.149Z,37.63
2023-04-26T04:49:46.234Z,37.63
2023-04-26T04:50:46.262Z,37.70
2023-04-26T04:51:46.315Z,37.66
2023-04-26T04:52:46.405Z,37.62
2023-04-26T04:53:46.481Z,37.66
2023-04-26T04:54:46.522Z,37.60
2023-04-26T04:55:46.570Z,37.61
2023-04-26T04:56:46.652Z,37.59
2023-04-26T04:57:46.674Z,37.59
2023-04-26T04:58:46.746Z,37.71
2023-04-26T04:59:46.801Z,37.65
2023-04-26T05:00:46.884Z,37.57
2023-04-26T05:01:46.935Z,37.64
2023-04-26T05:02:47.132Z,37.66
2023-04-26T05:03:47.113Z,37.64
2023-04-26T05:04:47.165Z,37.57
2023-04-26T05:05:47.124Z,37.59
2023-04-26T05:06:47.199Z,37.63
2023-04-26T05:07:47.255Z,37.56
2023-04-26T05:08:47.273Z,37.53
2023-04-26T05:09:47.346Z,37.61
2023-04-26T05:10:47.425Z,37.70
2023-04-26T05:11:47.485Z,37.71
2023-04-26T05:12:47.512Z,37.60
2023-04-26T05:13:47.580Z,37.48
2023-04-26T05:14:47.658Z,37.55
2023-04-26T05:15:47.705Z,37.48
2023-04-26T05:16:47.915Z,37.48
2023-04-26T05:17:47.829Z,37.45
2023-04-26T05:18:47.879Z,37.53
2023-04-26T05:19:47.957Z,37.54
2023-04-26T05:20:47.989Z,37.43
2023-04-26T05:21:48.042Z,37.40
2023-04-26T05:22:48.090Z,37.51
2023-04-26T05:23:48.182Z,37.51
2023-04-26T05:24:49.232Z,37.46
2023-04-26T05:25:48.263Z,37.46
2023-04-26T05:26:48.341Z,37.43
2023-04-26T05:27:48.523Z,37.36
2023-04-26T05:28:48.437Z,37.20
2023-04-26T05:29:48.501Z,36.52
2023-04-26T05:30:48.621Z,36.20
2023-04-26T05:31:48.661Z,35.96
2023-04-26T05:32:48.700Z,35.63
2023-04-26T05:33:48.704Z,35.61
2023-04-26T05:34:48.790Z,35.55
2023-04-26T05:35:49.145Z,35.66
2023-04-26T05:36:48.905Z,36.34
2023-04-26T05:37:48.891Z,36.44
2023-04-26T05:38:48.993Z,36.57
2023-04-26T05:39:48.997Z,36.87
2023-04-26T05:40:49.048Z,37.13
2023-04-26T05:41:49.072Z,37.51
2023-04-26T05:42:49.249Z,37.80
2023-04-26T05:43:49.146Z,38.12
2023-04-26T05:44:49.230Z,38.33
2023-04-26T05:45:49.670Z,38.66
2023-04-26T05:46:49.268Z,38.66
2023-04-26T05:47:49.366Z,38.76
2023-04-26T05:48:50.128Z,38.90
2023-04-26T05:49:49.378Z,39.23
2023-04-26T05:50:49.728Z,39.45
2023-04-26T05:51:49.422Z,39.69
2023-04-26T05:52:49.387Z,39.70
2023-04-26T05:53:49.736Z,40.05
2023-04-26T05:54:49.454Z,40.11
2023-04-26T05:55:49.429Z,40.27
2023-04-26T05:56:49.427Z,40.23
2023-04-26T05:57:49.602Z,40.34
2023-04-26T05:58:49.490Z,40.48
2023-04-26T05:59:49.570Z,40.59
2023-04-26T06:00:49.475Z,40.86
2023-04-26T06:01:49.734Z,40.91
2023-04-26T06:02:49.810Z,40.91
2023-04-26T06:03:49.734Z,41.09
2023-04-26T06:04:49.598Z,41.24
2023-04-26T06:05:49.565Z,41.24
2023-04-26T06:06:49.453Z,41.37
2023-04-26T06:07:49.456Z,41.44
2023-04-26T06:08:49.468Z,41.60
2023-04-26T06:09:49.453Z,41.65
2023-04-26T06:10:49.462Z,41.68
2023-04-26T06:11:49.473Z,41.84
2023-04-26T06:12:49.621Z,42.08
2023-04-26T06:13:49.651Z,42.05
2023-04-26T06:14:49.663Z,41.87
2023-04-26T06:15:49.649Z,41.79
2023-04-26T06:16:49.699Z,41.74
2023-04-26T06:17:49.779Z,41.84
2023-04-26T06:18:50.633Z,41.87
2023-04-26T06:19:49.843Z,41.89
2023-04-26T06:20:49.878Z,41.93
2023-04-26T06:21:49.960Z,42.04
2023-04-26T06:22:50.035Z,41.99
2023-04-26T06:23:50.350Z,42.12
2023-04-26T06:24:50.144Z,42.10
2023-04-26T06:25:50.150Z,42.19
2023-04-26T06:26:50.211Z,42.35
2023-04-26T06:27:50.291Z,42.47
2023-04-26T06:28:50.359Z,42.50
2023-04-26T06:29:50.629Z,42.54
2023-04-26T06:30:50.668Z,42.66
2023-04-26T06:31:50.545Z,42.82
2023-04-26T06:32:50.644Z,42.73
2023-04-26T06:33:50.747Z,42.77
2023-04-26T06:34:50.727Z,42.82
2023-04-26T06:35:50.741Z,42.92
2023-04-26T06:36:50.814Z,42.95
2023-04-26T06:37:50.892Z,43.27
2023-04-26T06:38:50.934Z,43.20
2023-04-26T06:39:50.992Z,43.52
2023-04-26T06:40:51.201Z,43.37
2023-04-26T06:41:52.507Z,43.22
2023-04-26T06:42:51.134Z,43.21
2023-04-26T06:43:51.453Z,43.24
2023-04-26T06:44:51.219Z,43.25
2023-04-26T06:45:51.335Z,43.34
2023-04-26T06:46:51.364Z,43.41
2023-04-26T06:47:51.447Z,43.46
2023-04-26T06:48:53.150Z,43.80
2023-04-26T06:49:51.463Z,43.73
2023-04-26T06:50:51.490Z,44.04
2023-04-26T06:51:53.158Z,44.08
2023-04-26T06:52:51.625Z,44.21
2023-04-26T06:53:51.740Z,44.16
2023-04-26T06:54:57.098Z,44.25
2023-04-26T06:55:53.178Z,44.27
2023-04-26T06:56:51.648Z,44.29
2023-04-26T06:57:51.639Z,44.41
2023-04-26T06:58:51.627Z,44.59
2023-04-26T06:59:51.776Z,44.51
2023-04-26T07:00:51.693Z,44.67
2023-04-26T07:01:51.691Z,44.66
2023-04-26T07:02:51.681Z,44.68
2023-04-26T07:03:52.019Z,44.85
2023-04-26T07:04:51.836Z,44.85
2023-04-26T07:05:51.698Z,45.00
2023-04-26T07:06:51.582Z,45.09
2023-04-26T07:07:51.700Z,45.25
2023-04-26T07:08:51.767Z,45.33
2023-04-26T07:09:51.655Z,45.33
2023-04-26T07:10:51.755Z,45.40
2023-04-26T07:11:51.698Z,45.39
2023-04-26T07:12:51.748Z,45.49
2023-04-26T07:13:51.912Z,45.44
2023-04-26T07:14:51.779Z,45.64
2023-04-26T07:15:52.362Z,45.59
2023-04-26T07:16:51.855Z,45.60
2023-04-26T07:17:51.917Z,45.62
2023-04-26T07:18:51.906Z,45.84
2023-04-26T07:19:52.476Z,45.80
2023-04-26T07:20:52.291Z,45.74
2023-04-26T07:21:51.975Z,45.69
2023-04-26T07:22:52.023Z,45.77
2023-04-26T07:23:52.296Z,45.81
2023-04-26T07:24:52.074Z,45.94
2023-04-26T07:25:52.116Z,45.91
2023-04-26T07:26:52.089Z,45.95
2023-04-26T07:27:52.095Z,45.98
2023-04-26T07:28:52.141Z,46.02
2023-04-26T07:29:52.130Z,46.10
2023-04-26T07:30:52.676Z,46.37
2023-04-26T07:31:52.195Z,46.32
2023-04-26T07:32:52.348Z,46.37
2023-04-26T07:33:52.495Z,46.59
2023-04-26T07:34:52.250Z,46.95
2023-04-26T07:35:52.197Z,46.68
2023-04-26T07:36:52.184Z,45.70
2023-04-26T07:37:52.319Z,45.69
2023-04-26T07:38:52.201Z,45.50
2023-04-26T07:39:52.251Z,45.15
2023-04-26T07:40:52.218Z,44.90
2023-04-26T07:41:52.231Z,44.82
2023-04-26T07:42:52.217Z,44.63
2023-04-26T07:43:52.432Z,44.59
2023-04-26T07:44:53.071Z,44.47
2023-04-26T07:45:52.283Z,44.47
2023-04-26T07:46:52.298Z,44.47
2023-04-26T07:47:52.349Z,44.43
2023-04-26T07:48:52.352Z,44.35
2023-04-26T07:49:52.309Z,44.47
2023-04-26T07:50:52.414Z,44.46
2023-04-26T07:51:52.376Z,44.31
2023-04-26T07:52:52.382Z,44.27
2023-04-26T07:53:52.655Z,44.27
2023-04-26T07:54:52.444Z,44.18
2023-04-26T07:55:52.429Z,44.10
2023-04-26T07:56:52.461Z,43.92
2023-04-26T07:57:52.499Z,43.92
2023-04-26T07:58:52.567Z,43.91
2023-04-26T07:59:52.513Z,43.88
2023-04-26T08:00:52.564Z,43.84
2023-04-26T08:01:52.605Z,43.69
2023-04-26T08:02:52.795Z,43.71
2023-04-26T08:03:52.981Z,43.63
2023-04-26T08:04:52.936Z,43.57
2023-04-26T08:05:53.012Z,43.64
2023-04-26T08:06:52.696Z,43.59
2023-04-26T08:07:52.747Z,43.50
2023-04-26T08:08:52.753Z,43.54
2023-04-26T08:09:52.832Z,43.48
2023-04-26T08:10:53.200Z,43.43
2023-04-26T08:11:52.932Z,43.35
2023-04-26T08:12:52.911Z,43.30
2023-04-26T08:13:53.051Z,43.21
2023-04-26T08:14:52.946Z,43.23
2023-04-26T08:15:52.969Z,43.23
2023-04-26T08:16:52.987Z,43.10
2023-04-26T08:17:53.044Z,43.06
2023-04-26T08:18:53.029Z,43.02
2023-04-26T08:19:53.045Z,42.94
2023-04-26T08:20:53.233Z,42.76
2023-04-26T08:21:53.098Z,42.13
2023-04-26T08:22:53.145Z,42.19
2023-04-26T08:23:53.519Z,40.81
2023-04-26T08:24:53.238Z,40.44
2023-04-26T08:25:53.271Z,40.61
2023-04-26T08:26:53.275Z,40.41
2023-04-26T08:27:53.313Z,39.79
2023-04-26T08:28:53.320Z,39.21
2023-04-26T08:29:53.363Z,39.55
2023-04-26T08:30:53.715Z,38.66
2023-04-26T08:31:54.281Z,39.24
2023-04-26T08:32:53.577Z,39.20
2023-04-26T08:33:53.827Z,38.00
2023-04-26T08:34:54.192Z,38.64
2023-04-26T08:35:53.603Z,38.26
2023-04-26T08:36:53.607Z,37.76
2023-04-26T08:37:53.676Z,37.99
2023-04-26T08:38:54.272Z,38.11
2023-04-26T08:39:53.727Z,37.49
2023-04-26T08:40:54.212Z,37.31
2023-04-26T08:41:53.891Z,37.47
2023-04-26T08:42:53.890Z,37.46
2023-04-26T08:43:54.136Z,37.27
2023-04-26T08:44:53.930Z,36.84
2023-04-26T08:45:53.979Z,37.34
2023-04-26T08:46:54.081Z,37.71
2023-04-26T08:47:54.102Z,38.17
2023-04-26T08:48:54.107Z,38.76
2023-04-26T08:49:54.163Z,38.76
2023-04-26T08:50:54.741Z,39.18
2023-04-26T08:51:54.249Z,39.23
2023-04-26T08:52:54.322Z,39.23
2023-04-26T08:53:54.427Z,39.43
2023-04-26T08:54:54.351Z,39.62
2023-04-26T08:55:54.409Z,39.68
2023-04-26T08:56:54.396Z,39.66
2023-04-26T08:57:54.637Z,39.84
2023-04-26T08:58:54.498Z,40.11
2023-04-26T08:59:54.733Z,40.29
2023-04-26T09:00:54.738Z,40.16
2023-04-26T09:01:54.652Z,40.35
2023-04-26T09:02:54.793Z,40.48
2023-04-26T09:03:55.133Z,40.63
2023-04-26T09:04:54.809Z,40.79
2023-04-26T09:05:55.196Z,40.89
2023-04-26T09:06:54.866Z,41.03
2023-04-26T09:07:56.758Z,41.02
2023-04-26T09:08:54.801Z,40.95
2023-04-26T09:09:54.825Z,40.99
2023-04-26T09:10:55.230Z,40.55
2023-04-26T09:11:54.904Z,40.47
2023-04-26T09:12:54.900Z,40.68
2023-04-26T09:13:55.027Z,40.60
2023-04-26T09:14:55.012Z,40.72
2023-04-26T09:15:55.372Z,40.77
2023-04-26T09:16:55.107Z,40.58
2023-04-26T09:17:55.210Z,40.33
2023-04-26T09:18:55.219Z,40.38
2023-04-26T09:19:55.077Z,40.41
2023-04-26T09:20:55.125Z,40.25
2023-04-26T09:21:55.134Z,40.08
2023-04-26T09:22:55.150Z,40.12
2023-04-26T09:23:55.208Z,40.17
2023-04-26T09:24:55.224Z,39.85
2023-04-26T09:25:55.263Z,39.95
2023-04-26T09:26:56.194Z,40.00
2023-04-26T09:27:55.398Z,39.60
2023-04-26T09:28:55.354Z,39.58
2023-04-26T09:29:55.371Z,39.48
2023-04-26T09:30:55.776Z,35.26
2023-04-26T09:31:55.485Z,34.69
2023-04-26T09:32:55.443Z,35.79
2023-04-26T09:33:56.208Z,36.48
2023-04-26T09:34:55.560Z,36.33
2023-04-26T09:35:55.535Z,36.45
2023-04-26T09:36:55.623Z,36.49
2023-04-26T09:38:00.307Z,36.33
2023-04-26T09:38:56.784Z,36.50
2023-04-26T09:39:55.614Z,36.49
2023-04-26T09:40:57.228Z,36.51
2023-04-26T09:41:55.589Z,36.50
2023-04-26T09:42:55.632Z,36.62
2023-04-26T09:43:55.609Z,36.61
2023-04-26T09:44:55.555Z,36.64
2023-04-26T09:45:55.610Z,36.70
2023-04-26T09:46:55.565Z,36.74
2023-04-26T09:47:55.577Z,36.77
2023-04-26T09:48:55.580Z,36.83
2023-04-26T09:49:55.533Z,36.86
2023-04-26T09:50:55.768Z,36.87
2023-04-26T09:51:55.569Z,36.89
2023-04-26T09:52:55.763Z,36.86
2023-04-26T09:53:56.736Z,36.96
2023-04-26T09:54:55.543Z,36.95
2023-04-26T09:55:55.568Z,36.98
2023-04-26T09:56:55.576Z,37.03
2023-04-26T09:57:55.642Z,36.98
2023-04-26T09:58:55.730Z,37.05
2023-04-26T09:59:55.902Z,37.07
2023-04-26T10:00:55.748Z,37.05
2023-04-26T10:01:55.788Z,37.14
2023-04-26T10:02:55.901Z,37.09
2023-04-26T10:03:56.207Z,37.13
2023-04-26T10:04:56.075Z,37.15
2023-04-26T10:05:55.827Z,37.20
2023-04-26T10:06:55.871Z,37.21
2023-04-26T10:07:55.878Z,37.24
2023-04-26T10:08:56.289Z,37.25
2023-04-26T10:09:56.073Z,37.28
2023-04-26T10:10:56.024Z,37.29
2023-04-26T10:11:56.046Z,37.30
2023-04-26T10:12:56.010Z,37.33
2023-04-26T10:13:56.153Z,37.34
2023-04-26T10:14:56.149Z,37.33
2023-04-26T10:15:56.317Z,37.33
2023-04-26T10:16:56.175Z,37.36
2023-04-26T10:17:56.203Z,37.36
2023-04-26T10:18:56.210Z,37.38
2023-04-26T10:19:56.289Z,37.37
2023-04-26T10:20:56.240Z,37.36
2023-04-26T10:21:56.271Z,37.40
2023-04-26T10:22:56.375Z,37.39
2023-04-26T10:23:56.319Z,37.39
2023-04-26T10:24:56.373Z,37.41
2023-04-26T10:25:56.516Z,37.44
2023-04-26T10:26:56.447Z,37.46
2023-04-26T10:27:56.421Z,37.46
2023-04-26T10:29:01.374Z,37.47
2023-04-26T10:29:57.452Z,37.48
2023-04-26T10:30:56.755Z,37.51
2023-04-26T10:31:56.476Z,37.51
2023-04-26T10:32:56.530Z,37.51
2023-04-26T10:33:56.536Z,37.50
2023-04-26T10:34:56.454Z,37.55
2023-04-26T10:35:56.799Z,37.54
2023-04-26T10:36:56.432Z,37.52
2023-04-26T10:37:56.404Z,37.54
2023-04-26T10:38:56.408Z,37.60
2023-04-26T10:39:56.390Z,37.60
2023-04-26T10:40:57.235Z,37.62
2023-04-26T10:41:56.382Z,37.59
2023-04-26T10:42:56.397Z,37.62
2023-04-26T10:43:56.503Z,37.63
2023-04-26T10:44:56.512Z,37.67
2023-04-26T10:45:56.437Z,37.65
2023-04-26T10:46:56.459Z,37.66
2023-04-26T10:47:56.496Z,37.70
2023-04-26T10:48:56.478Z,37.70
2023-04-26T10:49:56.510Z,37.71
2023-04-26T10:50:56.539Z,37.72
2023-04-26T10:51:56.562Z,37.69
2023-04-26T10:52:56.589Z,37.73
2023-04-26T10:53:56.612Z,37.74
2023-04-26T10:54:56.646Z,37.73
2023-04-26T10:55:56.671Z,37.77
2023-04-26T10:56:56.677Z,37.76
2023-04-26T10:57:56.712Z,37.81
2023-04-26T10:58:56.746Z,37.83
2023-04-26T10:59:56.767Z,37.81
2023-04-26T11:00:56.873Z,37.81
2023-04-26T11:01:56.875Z,37.75
2023-04-26T11:02:56.946Z,37.77
2023-04-26T11:03:58.396Z,37.78
2023-04-26T11:04:56.928Z,37.79
2023-04-26T11:05:56.975Z,37.79
2023-04-26T11:06:56.955Z,37.82
2023-04-26T11:07:57.251Z,37.87
2023-04-26T11:08:57.017Z,37.85
2023-04-26T11:09:57.035Z,37.83
2023-04-26T11:10:57.199Z,37.80
2023-04-26T11:11:57.177Z,37.85
2023-04-26T11:12:57.145Z,37.88
2023-04-26T11:13:57.174Z,37.86
2023-04-26T11:14:57.186Z,37.86
2023-04-26T11:15:57.247Z,37.87
2023-04-26T11:16:57.268Z,37.88
2023-04-26T11:17:57.342Z,37.79
2023-04-26T11:18:57.306Z,37.70
2023-04-26T11:19:57.375Z,37.62
2023-04-26T11:20:57.810Z,37.62
2023-04-26T11:21:57.401Z,37.60
2023-04-26T11:22:57.436Z,37.62
2023-04-26T11:23:57.513Z,37.67
2023-04-26T11:24:58.392Z,37.66
2023-04-26T11:25:57.538Z,37.68
2023-04-26T11:26:57.552Z,37.71
2023-04-26T11:27:57.581Z,37.71
2023-04-26T11:28:57.652Z,37.75
2023-04-26T11:29:57.673Z,37.74
2023-04-26T11:30:57.777Z,37.80
2023-04-26T11:31:57.780Z,37.79
2023-04-26T11:32:57.787Z,37.75
2023-04-26T11:33:57.871Z,37.68
2023-04-26T11:34:57.806Z,37.79
2023-04-26T11:35:58.461Z,37.76
2023-04-26T11:36:57.896Z,37.69
2023-04-26T11:37:57.919Z,37.69
2023-04-26T11:38:58.086Z,37.75
2023-04-26T11:39:58.006Z,37.69
2023-04-26T11:40:58.296Z,37.73
2023-04-26T11:41:58.263Z,37.69
2023-04-26T11:42:58.129Z,37.72
2023-04-26T11:43:58.198Z,37.71
2023-04-26T11:44:58.195Z,37.71
2023-04-26T11:45:58.230Z,37.73
2023-04-26T11:46:59.312Z,37.68
2023-04-26T11:47:58.409Z,37.67
2023-04-26T11:48:58.419Z,37.76
2023-04-26T11:49:58.409Z,37.71
2023-04-26T11:50:58.452Z,37.74
2023-04-26T11:51:58.447Z,37.78
2023-04-26T11:52:58.469Z,37.77
2023-04-26T11:53:58.488Z,37.72
2023-04-26T11:54:58.604Z,37.76
2023-04-26T11:55:58.617Z,37.78
2023-04-26T11:56:58.637Z,37.72
2023-04-26T11:57:58.649Z,37.74
2023-04-26T11:58:58.704Z,37.77
2023-04-26T11:59:58.718Z,37.81
2023-04-26T12:00:58.719Z,37.73
2023-04-26T12:01:58.856Z,37.76
2023-04-26T12:02:58.934Z,37.74
2023-04-26T12:03:58.997Z,37.74
2023-04-26T12:04:59.154Z,37.74
2023-04-26T12:05:58.897Z,37.72
2023-04-26T12:06:58.939Z,37.74
2023-04-26T12:07:58.960Z,37.70
2023-04-26T12:08:59.000Z,37.67
2023-04-26T12:10:00.796Z,37.74
2023-04-26T12:10:59.100Z,37.75
2023-04-26T12:11:59.139Z,37.73
2023-04-26T12:12:59.079Z,37.76
2023-04-26T12:13:59.093Z,37.77
2023-04-26T12:14:59.123Z,37.81
2023-04-26T12:15:59.179Z,37.83
2023-04-26T12:16:59.308Z,37.77
2023-04-26T12:17:59.298Z,37.72
2023-04-26T12:18:59.340Z,37.70
2023-04-26T12:19:59.314Z,37.70
2023-04-26T12:20:59.318Z,37.70
2023-04-26T12:21:59.402Z,37.76
2023-04-26T12:22:59.420Z,37.79
2023-04-26T12:23:59.557Z,37.72
2023-04-26T12:24:59.480Z,37.69
2023-04-26T12:25:59.505Z,37.70
2023-04-26T12:27:01.007Z,37.67
2023-04-26T12:27:59.636Z,37.68
2023-04-26T12:28:59.523Z,37.62
2023-04-26T12:29:59.556Z,37.67
2023-04-26T12:30:59.509Z,37.66
2023-04-26T12:31:59.602Z,37.67
2023-04-26T12:33:13.024Z,37.69
2023-04-26T12:34:00.485Z,37.72
2023-04-26T12:34:59.484Z,37.68
2023-04-26T12:35:59.467Z,37.70
2023-04-26T12:36:59.549Z,37.69
2023-04-26T12:37:59.454Z,37.70
2023-04-26T12:38:59.546Z,37.70
2023-04-26T12:39:59.461Z,37.69
2023-04-26T12:40:59.504Z,37.70
2023-04-26T12:41:59.458Z,37.71
2023-04-26T12:42:59.418Z,37.70
2023-04-26T12:43:59.455Z,37.73
2023-04-26T12:44:59.411Z,37.74
2023-04-26T12:45:59.504Z,37.73
2023-04-26T12:46:59.409Z,37.78
2023-04-26T12:47:59.453Z,37.77
2023-04-26T12:48:59.393Z,37.81
2023-04-26T12:49:59.387Z,37.78
2023-04-26T12:50:59.381Z,37.80
2023-04-26T12:51:59.388Z,37.84
2023-04-26T12:52:59.354Z,37.82